sensor_id;sensor_type;location;lat;lon;timestamp;P1;durP1;ratioP1;P2;durP2;ratioP2
22673;SDS011;11504;43.334;21.918;2023-06-10T00:00:28;18.0;;;17.0;;
22673;SDS011;11504;43.334;21.918;2023-06-10T00:05:04;14.0;;;14.0;;
22673;SDS011;11504;43.334;21.918;2023-06-10T00:09:43;14.0;;;14.0;;
22673;SDS011;11504;43.334;21.918;2023-06-10T00:14:20;10.0;;;10.0;;
22673;SDS011;11504;43.334;21.918;2023-06-10T00:18:56;10.0;;;10.0;;
22673;SDS011;11504;43.334;21.918;2023-06-10T00:23:36;10.0;;;10.0;;
22673;SDS011;11504;43.334;21.918;2023-06-10T00:28:12;10.0;;;10.0;;
22673;SDS011;11504;43.334;21.918;2023-06-10T00:32:49;9.0;;;9.0;;
22673;SDS011;11504;43.334;21.918;2023-06-10T00:37:25;9.0;;;9.0;;
22673;SDS011;11504;43.334;21.918;2023-06-10T00:42:02;10.0;;;10.0;;
22673;SDS011;11504;43.334;21.918;2023-06-10T00:46:43;10.0;;;10.0;;
22673;SDS011;11504;43.334;21.918;2023-06-10T00:51:21;10.0;;;10.0;;
22673;SDS011;11504;43.334;21.918;2023-06-10T00:55:59;10.0;;;10.0;;
22673;SDS011;11504;43.334;21.918;2023-06-10T01:00:36;10.0;;;10.0;;
22673;SDS011;11504;43.334;21.918;2023-06-10T01:05:13;10.0;;;10.0;;
22673;SDS011;11504;43.334;21.918;2023-06-10T01:09:53;10.0;;;10.0;;
22673;SDS011;11504;43.334;21.918;2023-06-10T01:14:58;11.0;;;11.0;;
22673;SDS011;11504;43.334;21.918;2023-06-10T01:19:37;11.0;;;11.0;;
22673;SDS011;11504;43.334;21.918;2023-06-10T01:24:14;10.0;;;10.0;;
22673;SDS011;11504;43.334;21.918;2023-06-10T01:28:52;10.0;;;10.0;;
22673;SDS011;11504;43.334;21.918;2023-06-10T01:33:58;10.0;;;10.0;;
22673;SDS011;11504;43.334;21.918;2023-06-10T01:38:48;10.0;;;10.0;;
22673;SDS011;11504;43.334;21.918;2023-06-10T01:43:34;12.0;;;11.0;;
22673;SDS011;11504;43.334;21.918;2023-06-10T01:48:15;12.0;;;11.0;;
22673;SDS011;11504;43.334;21.918;2023-06-10T01:52:52;13.0;;;12.0;;
22673;SDS011;11504;43.334;21.918;2023-06-10T01:57:28;13.0;;;12.0;;
22673;SDS011;11504;43.334;21.918;2023-06-10T02:02:05;13.0;;;12.0;;
22673;SDS011;11504;43.334;21.918;2023-06-10T02:06:41;13.0;;;12.0;;
22673;SDS011;11504;43.334;21.918;2023-06-10T02:11:18;13.0;;;12.0;;
22673;SDS011;11504;43.334;21.918;2023-06-10T02:15:54;13.0;;;13.0;;
22673;SDS011;11504;43.334;21.918;2023-06-10T02:20:31;13.0;;;13.0;;
22673;SDS011;11504;43.334;21.918;2023-06-10T02:25:08;12.0;;;12.0;;
22673;SDS011;11504;43.334;21.918;2023-06-10T02:29:45;12.0;;;12.0;;
22673;SDS011;11504;43.334;21.918;2023-06-10T02:34:22;11.0;;;10.0;;
22673;SDS011;11504;43.334;21.918;2023-06-10T02:38:58;11.0;;;10.0;;
22673;SDS011;11504;43.334;21.918;2023-06-10T02:43:35;12.0;;;10.0;;
22673;SDS011;11504;43.334;21.918;2023-06-10T02:48:11;12.0;;;10.0;;
22673;SDS011;11504;43.334;21.918;2023-06-10T02:52:48;12.0;;;11.0;;
22673;SDS011;11504;43.334;21.918;2023-06-10T02:57:24;12.0;;;11.0;;
22673;SDS011;11504;43.334;21.918;2023-06-10T03:02:00;12.0;;;12.0;;
22673;SDS011;11504;43.334;21.918;2023-06-10T03:06:38;12.0;;;12.0;;
22673;SDS011;11504;43.334;21.918;2023-06-10T03:11:15;12.0;;;12.0;;
22673;SDS011;11504;43.334;21.918;2023-06-10T03:15:52;13.0;;;12.0;;
22673;SDS011;11504;43.334;21.918;2023-06-10T03:20:28;13.0;;;12.0;;
22673;SDS011;11504;43.334;21.918;2023-06-10T03:25:06;15.0;;;14.0;;
22673;SDS011;11504;43.334;21.918;2023-06-10T03:29:44;15.0;;;14.0;;
22673;SDS011;11504;43.334;21.918;2023-06-10T03:34:21;17.0;;;16.0;;
22673;SDS011;11504;43.334;21.918;2023-06-10T03:38:58;17.0;;;16.0;;
22673;SDS011;11504;43.334;21.918;2023-06-10T03:43:35;14.0;;;14.0;;
22673;SDS011;11504;43.334;21.918;2023-06-10T03:48:13;14.0;;;14.0;;
22673;SDS011;11504;43.334;21.918;2023-06-10T03:52:50;11.0;;;11.0;;
22673;SDS011;11504;43.334;21.918;2023-06-10T03:57:27;11.0;;;11.0;;
22673;SDS011;11504;43.334;21.918;2023-06-10T04:02:04;12.0;;;12.0;;
22673;SDS011;11504;43.334;21.918;2023-06-10T04:06:41;12.0;;;12.0;;
22673;SDS011;11504;43.334;21.918;2023-06-10T04:11:19;12.0;;;12.0;;
22673;SDS011;11504;43.334;21.918;2023-06-10T04:15:55;13.0;;;12.0;;
22673;SDS011;11504;43.334;21.918;2023-06-10T04:20:33;13.0;;;12.0;;
22673;SDS011;11504;43.334;21.918;2023-06-10T04:25:09;12.0;;;12.0;;
22673;SDS011;11504;43.334;21.918;2023-06-10T04:29:46;12.0;;;12.0;;
22673;SDS011;11504;43.334;21.918;2023-06-10T04:34:22;12.0;;;12.0;;
22673;SDS011;11504;43.334;21.918;2023-06-10T04:38:59;12.0;;;12.0;;
22673;SDS011;11504;43.334;21.918;2023-06-10T04:43:36;12.0;;;12.0;;
22673;SDS011;11504;43.334;21.918;2023-06-10T04:48:13;12.0;;;12.0;;
22673;SDS011;11504;43.334;21.918;2023-06-10T04:52:50;13.0;;;12.0;;
22673;SDS011;11504;43.334;21.918;2023-06-10T04:57:27;13.0;;;12.0;;
22673;SDS011;11504;43.334;21.918;2023-06-10T05:02:03;13.0;;;12.0;;
22673;SDS011;11504;43.334;21.918;2023-06-10T05:06:41;13.0;;;12.0;;
22673;SDS011;11504;43.334;21.918;2023-06-10T05:11:17;13.0;;;12.0;;
22673;SDS011;11504;43.334;21.918;2023-06-10T05:15:54;13.0;;;12.0;;
22673;SDS011;11504;43.334;21.918;2023-06-10T05:20:30;13.0;;;12.0;;
22673;SDS011;11504;43.334;21.918;2023-06-10T05:25:07;12.0;;;11.0;;
22673;SDS011;11504;43.334;21.918;2023-06-10T05:29:44;12.0;;;11.0;;
22673;SDS011;11504;43.334;21.918;2023-06-10T05:34:21;12.0;;;10.0;;
22673;SDS011;11504;43.334;21.918;2023-06-10T05:38:57;12.0;;;10.0;;
22673;SDS011;11504;43.334;21.918;2023-06-10T05:43:33;12.0;;;11.0;;
22673;SDS011;11504;43.334;21.918;2023-06-10T05:48:10;12.0;;;11.0;;
22673;SDS011;11504;43.334;21.918;2023-06-10T05:52:46;13.0;;;12.0;;
22673;SDS011;11504;43.334;21.918;2023-06-10T05:57:22;13.0;;;12.0;;
22673;SDS011;11504;43.334;21.918;2023-06-10T06:01:59;14.0;;;12.0;;
22673;SDS011;11504;43.334;21.918;2023-06-10T06:06:38;14.0;;;12.0;;
22673;SDS011;11504;43.334;21.918;2023-06-10T06:11:15;14.0;;;12.0;;
22673;SDS011;11504;43.334;21.918;2023-06-10T06:15:52;16.0;;;13.0;;
22673;SDS011;11504;43.334;21.918;2023-06-10T06:20:29;16.0;;;13.0;;
22673;SDS011;11504;43.334;21.918;2023-06-10T06:25:06;16.0;;;14.0;;
22673;SDS011;11504;43.334;21.918;2023-06-10T06:29:44;16.0;;;14.0;;
22673;SDS011;11504;43.334;21.918;2023-06-10T06:34:20;17.0;;;16.0;;
22673;SDS011;11504;43.334;21.918;2023-06-10T06:38:57;17.0;;;16.0;;
22673;SDS011;11504;43.334;21.918;2023-06-10T06:43:34;18.0;;;18.0;;
22673;SDS011;11504;43.334;21.918;2023-06-10T06:48:11;18.0;;;18.0;;
22673;SDS011;11504;43.334;21.918;2023-06-10T06:52:48;20.0;;;19.0;;
22673;SDS011;11504;43.334;21.918;2023-06-10T06:57:25;20.0;;;19.0;;
22673;SDS011;11504;43.334;21.918;2023-06-10T07:02:02;18.0;;;18.0;;
22673;SDS011;11504;43.334;21.918;2023-06-10T07:06:40;18.0;;;18.0;;
22673;SDS011;11504;43.334;21.918;2023-06-10T07:11:17;18.0;;;18.0;;
22673;SDS011;11504;43.334;21.918;2023-06-10T07:15:54;17.0;;;16.0;;
22673;SDS011;11504;43.334;21.918;2023-06-10T07:20:30;17.0;;;16.0;;
22673;SDS011;11504;43.334;21.918;2023-06-10T07:25:07;18.0;;;18.0;;
22673;SDS011;11504;43.334;21.918;2023-06-10T07:29:45;18.0;;;18.0;;
22673;SDS011;11504;43.334;21.918;2023-06-10T07:34:21;20.0;;;19.0;;
22673;SDS011;11504;43.334;21.918;2023-06-10T07:38:57;20.0;;;19.0;;
22673;SDS011;11504;43.334;21.918;2023-06-10T07:43:34;15.0;;;14.0;;
22673;SDS011;11504;43.334;21.918;2023-06-10T07:48:12;15.0;;;14.0;;
22673;SDS011;11504;43.334;21.918;2023-06-10T07:52:49;10.0;;;10.0;;
22673;SDS011;11504;43.334;21.918;2023-06-10T07:57:26;10.0;;;10.0;;
22673;SDS011;11504;43.334;21.918;2023-06-10T08:02:02;23.0;;;22.0;;
22673;SDS011;11504;43.334;21.918;2023-06-10T08:06:41;23.0;;;22.0;;
22673;SDS011;11504;43.334;21.918;2023-06-10T08:11:17;23.0;;;22.0;;
22673;SDS011;11504;43.334;21.918;2023-06-10T08:15:54;36.0;;;35.0;;
22673;SDS011;11504;43.334;21.918;2023-06-10T08:20:30;36.0;;;35.0;;
22673;SDS011;11504;43.334;21.918;2023-06-10T08:25:06;26.0;;;25.0;;
22673;SDS011;11504;43.334;21.918;2023-06-10T08:29:45;26.0;;;25.0;;
22673;SDS011;11504;43.334;21.918;2023-06-10T08:34:21;15.0;;;15.0;;
22673;SDS011;11504;43.334;21.918;2023-06-10T08:38:58;15.0;;;15.0;;
22673;SDS011;11504;43.334;21.918;2023-06-10T08:43:40;14.0;;;14.0;;
22673;SDS011;11504;43.334;21.918;2023-06-10T08:48:52;14.0;;;14.0;;
22673;SDS011;11504;43.334;21.918;2023-06-10T08:53:44;13.0;;;12.0;;
22673;SDS011;11504;43.334;21.918;2023-06-10T08:58:56;13.0;;;12.0;;
22673;SDS011;11504;43.334;21.918;2023-06-10T09:03:37;13.0;;;12.0;;
22673;SDS011;11504;43.334;21.918;2023-06-10T09:08:19;13.0;;;12.0;;
22673;SDS011;11504;43.334;21.918;2023-06-10T09:12:56;13.0;;;12.0;;
22673;SDS011;11504;43.334;21.918;2023-06-10T09:17:34;13.0;;;12.0;;
22673;SDS011;11504;43.334;21.918;2023-06-10T09:22:11;13.0;;;12.0;;
22673;SDS011;11504;43.334;21.918;2023-06-10T09:26:49;13.0;;;12.0;;
22673;SDS011;11504;43.334;21.918;2023-06-10T09:31:39;13.0;;;12.0;;
22673;SDS011;11504;43.334;21.918;2023-06-10T09:36:21;13.0;;;12.0;;
22673;SDS011;11504;43.334;21.918;2023-06-10T09:40:59;13.0;;;12.0;;
22673;SDS011;11504;43.334;21.918;2023-06-10T09:45:38;14.0;;;13.0;;
22673;SDS011;11504;43.334;21.918;2023-06-10T09:50:15;14.0;;;13.0;;
22673;SDS011;11504;43.334;21.918;2023-06-10T09:54:52;15.0;;;14.0;;
22673;SDS011;11504;43.334;21.918;2023-06-10T09:59:38;15.0;;;14.0;;
22673;SDS011;11504;43.334;21.918;2023-06-10T10:04:22;16.0;;;14.0;;
22673;SDS011;11504;43.334;21.918;2023-06-10T10:09:00;16.0;;;14.0;;
22673;SDS011;11504;43.334;21.918;2023-06-10T10:13:37;16.0;;;15.0;;
22673;SDS011;11504;43.334;21.918;2023-06-10T10:18:20;16.0;;;15.0;;
22673;SDS011;11504;43.334;21.918;2023-06-10T10:23:14;17.0;;;16.0;;
22673;SDS011;11504;43.334;21.918;2023-06-10T10:28:40;17.0;;;16.0;;
22673;SDS011;11504;43.334;21.918;2023-06-10T10:33:59;18.0;;;17.0;;
22673;SDS011;11504;43.334;21.918;2023-06-10T10:38:54;18.0;;;17.0;;
22673;SDS011;11504;43.334;21.918;2023-06-10T10:43:33;16.0;;;16.0;;
22673;SDS011;11504;43.334;21.918;2023-06-10T10:48:12;16.0;;;16.0;;
22673;SDS011;11504;43.334;21.918;2023-06-10T10:52:52;15.0;;;15.0;;
22673;SDS011;11504;43.334;21.918;2023-06-10T10:57:38;15.0;;;15.0;;
22673;SDS011;11504;43.334;21.918;2023-06-10T11:02:15;15.0;;;14.0;;
22673;SDS011;11504;43.334;21.918;2023-06-10T11:07:10;15.0;;;14.0;;
22673;SDS011;11504;43.334;21.918;2023-06-10T11:11:48;15.0;;;14.0;;
22673;SDS011;11504;43.334;21.918;2023-06-10T11:16:26;15.0;;;14.0;;
22673;SDS011;11504;43.334;21.918;2023-06-10T11:21:16;15.0;;;14.0;;
22673;SDS011;11504;43.334;21.918;2023-06-10T11:26:08;15.0;;;14.0;;
22673;SDS011;11504;43.334;21.918;2023-06-10T11:31:06;15.0;;;14.0;;
22673;SDS011;11504;43.334;21.918;2023-06-10T11:35:58;15.0;;;15.0;;
22673;SDS011;11504;43.334;21.918;2023-06-10T11:40:36;15.0;;;15.0;;
22673;SDS011;11504;43.334;21.918;2023-06-10T11:45:14;14.0;;;14.0;;
22673;SDS011;11504;43.334;21.918;2023-06-10T11:49:55;14.0;;;14.0;;
22673;SDS011;11504;43.334;21.918;2023-06-10T11:54:33;14.0;;;13.0;;
22673;SDS011;11504;43.334;21.918;2023-06-10T11:59:10;14.0;;;13.0;;
22673;SDS011;11504;43.334;21.918;2023-06-10T12:03:47;14.0;;;13.0;;
22673;SDS011;11504;43.334;21.918;2023-06-10T12:08:41;14.0;;;13.0;;
22673;SDS011;11504;43.334;21.918;2023-06-10T12:13:19;14.0;;;13.0;;
22673;SDS011;11504;43.334;21.918;2023-06-10T12:17:58;14.0;;;13.0;;
22673;SDS011;11504;43.334;21.918;2023-06-10T12:22:36;12.0;;;12.0;;
22673;SDS011;11504;43.334;21.918;2023-06-10T12:27:19;12.0;;;12.0;;
22673;SDS011;11504;43.334;21.918;2023-06-10T12:31:57;12.0;;;12.0;;
22673;SDS011;11504;43.334;21.918;2023-06-10T12:36:47;10.0;;;10.0;;
22673;SDS011;11504;43.334;21.918;2023-06-10T12:41:25;10.0;;;10.0;;
22673;SDS011;11504;43.334;21.918;2023-06-10T12:46:08;10.0;;;10.0;;
22673;SDS011;11504;43.334;21.918;2023-06-10T12:50:50;10.0;;;10.0;;
22673;SDS011;11504;43.334;21.918;2023-06-10T12:55:33;11.0;;;10.0;;
22673;SDS011;11504;43.334;21.918;2023-06-10T13:00:10;11.0;;;10.0;;
22673;SDS011;11504;43.334;21.918;2023-06-10T13:04:53;11.0;;;10.0;;
22673;SDS011;11504;43.334;21.918;2023-06-10T13:09:29;11.0;;;10.0;;
22673;SDS011;11504;43.334;21.918;2023-06-10T13:14:06;11.0;;;11.0;;
22673;SDS011;11504;43.334;21.918;2023-06-10T13:18:42;11.0;;;11.0;;
22673;SDS011;11504;43.334;21.918;2023-06-10T13:23:18;10.0;;;10.0;;
22673;SDS011;11504;43.334;21.918;2023-06-10T13:27:54;10.0;;;10.0;;
22673;SDS011;11504;43.334;21.918;2023-06-10T13:32:31;10.0;;;9.0;;
22673;SDS011;11504;43.334;21.918;2023-06-10T13:37:07;10.0;;;9.0;;
22673;SDS011;11504;43.334;21.918;2023-06-10T13:41:43;10.0;;;9.0;;
22673;SDS011;11504;43.334;21.918;2023-06-10T13:46:20;10.0;;;10.0;;
22673;SDS011;11504;43.334;21.918;2023-06-10T13:50:57;10.0;;;10.0;;
22673;SDS011;11504;43.334;21.918;2023-06-10T13:55:34;10.0;;;10.0;;
22673;SDS011;11504;43.334;21.918;2023-06-10T14:00:10;10.0;;;10.0;;
22673;SDS011;11504;43.334;21.918;2023-06-10T14:04:51;10.0;;;10.0;;
22673;SDS011;11504;43.334;21.918;2023-06-10T14:09:27;10.0;;;10.0;;
22673;SDS011;11504;43.334;21.918;2023-06-10T14:14:04;10.0;;;10.0;;
22673;SDS011;11504;43.334;21.918;2023-06-10T14:18:41;10.0;;;10.0;;
22673;SDS011;11504;43.334;21.918;2023-06-10T14:23:17;12.0;;;11.0;;
22673;SDS011;11504;43.334;21.918;2023-06-10T14:27:54;12.0;;;11.0;;
22673;SDS011;11504;43.334;21.918;2023-06-10T14:32:31;13.0;;;12.0;;
22673;SDS011;11504;43.334;21.918;2023-06-10T14:37:07;13.0;;;12.0;;
22673;SDS011;11504;43.334;21.918;2023-06-10T14:41:44;13.0;;;12.0;;
22673;SDS011;11504;43.334;21.918;2023-06-10T14:46:21;12.0;;;12.0;;
22673;SDS011;11504;43.334;21.918;2023-06-10T14:50:58;12.0;;;12.0;;
22673;SDS011;11504;43.334;21.918;2023-06-10T14:55:34;12.0;;;11.0;;
22673;SDS011;11504;43.334;21.918;2023-06-10T15:00:11;12.0;;;11.0;;
22673;SDS011;11504;43.334;21.918;2023-06-10T15:04:52;12.0;;;10.0;;
22673;SDS011;11504;43.334;21.918;2023-06-10T15:09:28;12.0;;;10.0;;
22673;SDS011;11504;43.334;21.918;2023-06-10T15:14:05;11.0;;;10.0;;
22673;SDS011;11504;43.334;21.918;2023-06-10T15:18:41;11.0;;;10.0;;
22673;SDS011;11504;43.334;21.918;2023-06-10T15:23:18;12.0;;;11.0;;
22673;SDS011;11504;43.334;21.918;2023-06-10T15:27:55;12.0;;;11.0;;
22673;SDS011;11504;43.334;21.918;2023-06-10T15:32:31;12.0;;;12.0;;
22673;SDS011;11504;43.334;21.918;2023-06-10T15:37:08;12.0;;;12.0;;
22673;SDS011;11504;43.334;21.918;2023-06-10T15:41:45;12.0;;;12.0;;
22673;SDS011;11504;43.334;21.918;2023-06-10T15:46:21;16.0;;;16.0;;
22673;SDS011;11504;43.334;21.918;2023-06-10T15:50:59;16.0;;;16.0;;
22673;SDS011;11504;43.334;21.918;2023-06-10T15:55:35;20.0;;;19.0;;
22673;SDS011;11504;43.334;21.918;2023-06-10T16:00:12;20.0;;;19.0;;
22673;SDS011;11504;43.334;21.918;2023-06-10T16:04:53;16.0;;;16.0;;
22673;SDS011;11504;43.334;21.918;2023-06-10T16:09:29;16.0;;;16.0;;
22673;SDS011;11504;43.334;21.918;2023-06-10T16:14:05;13.0;;;12.0;;
22673;SDS011;11504;43.334;21.918;2023-06-10T16:18:42;13.0;;;12.0;;
22673;SDS011;11504;43.334;21.918;2023-06-10T16:23:18;12.0;;;12.0;;
22673;SDS011;11504;43.334;21.918;2023-06-10T16:27:55;12.0;;;12.0;;
22673;SDS011;11504;43.334;21.918;2023-06-10T16:32:33;12.0;;;12.0;;
22673;SDS011;11504;43.334;21.918;2023-06-10T16:37:09;12.0;;;12.0;;
22673;SDS011;11504;43.334;21.918;2023-06-10T16:41:46;12.0;;;12.0;;
22673;SDS011;11504;43.334;21.918;2023-06-10T16:46:22;12.0;;;11.0;;
22673;SDS011;11504;43.334;21.918;2023-06-10T16:50:59;12.0;;;11.0;;
22673;SDS011;11504;43.334;21.918;2023-06-10T16:55:36;11.0;;;10.0;;
22673;SDS011;11504;43.334;21.918;2023-06-10T17:00:13;11.0;;;10.0;;
22673;SDS011;11504;43.334;21.918;2023-06-10T17:04:53;12.0;;;10.0;;
22673;SDS011;11504;43.334;21.918;2023-06-10T17:09:30;12.0;;;10.0;;
22673;SDS011;11504;43.334;21.918;2023-06-10T17:14:07;12.0;;;11.0;;
22673;SDS011;11504;43.334;21.918;2023-06-10T17:18:44;12.0;;;11.0;;
22673;SDS011;11504;43.334;21.918;2023-06-10T17:23:21;14.0;;;14.0;;
22673;SDS011;11504;43.334;21.918;2023-06-10T17:27:57;14.0;;;14.0;;
22673;SDS011;11504;43.334;21.918;2023-06-10T17:32:34;17.0;;;16.0;;
22673;SDS011;11504;43.334;21.918;2023-06-10T17:37:11;17.0;;;16.0;;
22673;SDS011;11504;43.334;21.918;2023-06-10T17:41:47;17.0;;;16.0;;
22673;SDS011;11504;43.334;21.918;2023-06-10T17:46:24;14.0;;;13.0;;
22673;SDS011;11504;43.334;21.918;2023-06-10T17:51:00;14.0;;;13.0;;
22673;SDS011;11504;43.334;21.918;2023-06-10T17:55:36;11.0;;;10.0;;
22673;SDS011;11504;43.334;21.918;2023-06-10T18:00:13;11.0;;;10.0;;
22673;SDS011;11504;43.334;21.918;2023-06-10T18:04:52;10.0;;;10.0;;
22673;SDS011;11504;43.334;21.918;2023-06-10T18:09:29;10.0;;;10.0;;
22673;SDS011;11504;43.334;21.918;2023-06-10T18:14:05;10.0;;;10.0;;
22673;SDS011;11504;43.334;21.918;2023-06-10T18:18:42;10.0;;;10.0;;
22673;SDS011;11504;43.334;21.918;2023-06-10T18:23:20;11.0;;;10.0;;
22673;SDS011;11504;43.334;21.918;2023-06-10T18:27:56;11.0;;;10.0;;
22673;SDS011;11504;43.334;21.918;2023-06-10T18:32:33;12.0;;;11.0;;
22673;SDS011;11504;43.334;21.918;2023-06-10T18:37:10;12.0;;;11.0;;
22673;SDS011;11504;43.334;21.918;2023-06-10T18:41:46;12.0;;;11.0;;
22673;SDS011;11504;43.334;21.918;2023-06-10T18:46:22;14.0;;;14.0;;
22673;SDS011;11504;43.334;21.918;2023-06-10T18:50:58;14.0;;;14.0;;
22673;SDS011;11504;43.334;21.918;2023-06-10T18:55:35;17.0;;;16.0;;
22673;SDS011;11504;43.334;21.918;2023-06-10T19:00:11;17.0;;;16.0;;
22673;SDS011;11504;43.334;21.918;2023-06-10T19:04:51;18.0;;;16.0;;
22673;SDS011;11504;43.334;21.918;2023-06-10T19:09:27;18.0;;;16.0;;
22673;SDS011;11504;43.334;21.918;2023-06-10T19:14:04;18.0;;;17.0;;
22673;SDS011;11504;43.334;21.918;2023-06-10T19:18:40;18.0;;;17.0;;
22673;SDS011;11504;43.334;21.918;2023-06-10T19:23:17;18.0;;;16.0;;
22673;SDS011;11504;43.334;21.918;2023-06-10T19:27:53;18.0;;;16.0;;
22673;SDS011;11504;43.334;21.918;2023-06-10T19:32:30;18.0;;;16.0;;
22673;SDS011;11504;43.334;21.918;2023-06-10T19:37:07;17.0;;;16.0;;
22673;SDS011;11504;43.334;21.918;2023-06-10T19:41:44;17.0;;;16.0;;
22673;SDS011;11504;43.334;21.918;2023-06-10T19:46:21;16.0;;;14.0;;
22673;SDS011;11504;43.334;21.918;2023-06-10T19:50:57;16.0;;;14.0;;
22673;SDS011;11504;43.334;21.918;2023-06-10T19:55:34;14.0;;;13.0;;
22673;SDS011;11504;43.334;21.918;2023-06-10T20:00:11;14.0;;;13.0;;
22673;SDS011;11504;43.334;21.918;2023-06-10T20:04:51;13.0;;;12.0;;
22673;SDS011;11504;43.334;21.918;2023-06-10T20:09:28;13.0;;;12.0;;
22673;SDS011;11504;43.334;21.918;2023-06-10T20:14:05;12.0;;;11.0;;
22673;SDS011;11504;43.334;21.918;2023-06-10T20:18:42;12.0;;;11.0;;
22673;SDS011;11504;43.334;21.918;2023-06-10T20:23:18;14.0;;;13.0;;
22673;SDS011;11504;43.334;21.918;2023-06-10T20:27:55;14.0;;;13.0;;
22673;SDS011;11504;43.334;21.918;2023-06-10T20:32:31;14.0;;;13.0;;
22673;SDS011;11504;43.334;21.918;2023-06-10T20:37:08;15.0;;;15.0;;
22673;SDS011;11504;43.334;21.918;2023-06-10T20:41:44;15.0;;;15.0;;
22673;SDS011;11504;43.334;21.918;2023-06-10T20:46:21;15.0;;;14.0;;
22673;SDS011;11504;43.334;21.918;2023-06-10T20:50:57;15.0;;;14.0;;
22673;SDS011;11504;43.334;21.918;2023-06-10T20:55:34;15.0;;;14.0;;
22673;SDS011;11504;43.334;21.918;2023-06-10T21:00:11;15.0;;;14.0;;
22673;SDS011;11504;43.334;21.918;2023-06-10T21:04:50;14.0;;;14.0;;
22673;SDS011;11504;43.334;21.918;2023-06-10T21:09:27;14.0;;;14.0;;
22673;SDS011;11504;43.334;21.918;2023-06-10T21:14:03;13.0;;;13.0;;
22673;SDS011;11504;43.334;21.918;2023-06-10T21:18:40;13.0;;;13.0;;
22673;SDS011;11504;43.334;21.918;2023-06-10T21:23:16;14.0;;;13.0;;
22673;SDS011;11504;43.334;21.918;2023-06-10T21:27:52;14.0;;;13.0;;
22673;SDS011;11504;43.334;21.918;2023-06-10T21:32:29;14.0;;;13.0;;
22673;SDS011;11504;43.334;21.918;2023-06-10T21:37:05;14.0;;;13.0;;
22673;SDS011;11504;43.334;21.918;2023-06-10T21:41:41;14.0;;;13.0;;
22673;SDS011;11504;43.334;21.918;2023-06-10T21:46:18;16.0;;;14.0;;
22673;SDS011;11504;43.334;21.918;2023-06-10T21:50:54;16.0;;;14.0;;
22673;SDS011;11504;43.334;21.918;2023-06-10T21:55:31;17.0;;;16.0;;
22673;SDS011;11504;43.334;21.918;2023-06-10T22:00:08;17.0;;;16.0;;
22673;SDS011;11504;43.334;21.918;2023-06-10T22:04:50;17.0;;;16.0;;
22673;SDS011;11504;43.334;21.918;2023-06-10T22:09:26;17.0;;;16.0;;
22673;SDS011;11504;43.334;21.918;2023-06-10T22:14:04;17.0;;;16.0;;
22673;SDS011;11504;43.334;21.918;2023-06-10T22:18:42;17.0;;;16.0;;
22673;SDS011;11504;43.334;21.918;2023-06-10T22:23:19;16.0;;;14.0;;
22673;SDS011;11504;43.334;21.918;2023-06-10T22:27:57;16.0;;;14.0;;
22673;SDS011;11504;43.334;21.918;2023-06-10T22:32:34;16.0;;;14.0;;
22673;SDS011;11504;43.334;21.918;2023-06-10T22:37:11;14.0;;;13.0;;
22673;SDS011;11504;43.334;21.918;2023-06-10T22:41:48;14.0;;;13.0;;
22673;SDS011;11504;43.334;21.918;2023-06-10T22:46:25;14.0;;;13.0;;
22673;SDS011;11504;43.334;21.918;2023-06-10T22:51:02;14.0;;;13.0;;
22673;SDS011;11504;43.334;21.918;2023-06-10T22:55:38;14.0;;;13.0;;
22673;SDS011;11504;43.334;21.918;2023-06-10T23:00:15;14.0;;;13.0;;
22673;SDS011;11504;43.334;21.918;2023-06-10T23:04:53;14.0;;;13.0;;
22673;SDS011;11504;43.334;21.918;2023-06-10T23:09:29;14.0;;;13.0;;
22673;SDS011;11504;43.334;21.918;2023-06-10T23:14:05;13.0;;;13.0;;
22673;SDS011;11504;43.334;21.918;2023-06-10T23:18:42;13.0;;;13.0;;
22673;SDS011;11504;43.334;21.918;2023-06-10T23:23:19;13.0;;;12.0;;
22673;SDS011;11504;43.334;21.918;2023-06-10T23:27:55;13.0;;;12.0;;
22673;SDS011;11504;43.334;21.918;2023-06-10T23:32:32;13.0;;;12.0;;
22673;SDS011;11504;43.334;21.918;2023-06-10T23:37:08;13.0;;;12.0;;
22673;SDS011;11504;43.334;21.918;2023-06-10T23:41:45;13.0;;;12.0;;
22673;SDS011;11504;43.334;21.918;2023-06-10T23:46:21;14.0;;;13.0;;
22673;SDS011;11504;43.334;21.918;2023-06-10T23:50:58;14.0;;;13.0;;
22673;SDS011;11504;43.334;21.918;2023-06-10T23:55:34;14.0;;;14.0;;
